createdAt,value
2018-07-25T00:00:24.795Z,4.53
2018-07-25T00:02:52.824Z,5.17
2018-07-25T00:05:20.876Z,7.30
2018-07-25T00:07:48.913Z,5.35
2018-07-25T00:10:16.932Z,4.10
2018-07-25T00:12:44.983Z,4.60
2018-07-25T00:15:13.013Z,4.08
2018-07-25T00:17:41.032Z,4.90
2018-07-25T00:20:09.062Z,6.00
2018-07-25T00:22:37.094Z,9.03
2018-07-25T00:25:04.919Z,6.58
2018-07-25T00:27:33.004Z,4.40
2018-07-25T00:30:01.033Z,4.28
2018-07-25T00:32:29.057Z,5.53
2018-07-25T00:34:57.084Z,5.08
2018-07-25T00:37:25.109Z,7.30
2018-07-25T00:39:53.032Z,6.03
2018-07-25T00:42:21.033Z,5.70
2018-07-25T00:44:49.040Z,7.42
2018-07-25T00:47:17.080Z,6.25
2018-07-25T00:49:45.096Z,4.65
2018-07-25T00:52:13.112Z,4.95
2018-07-25T00:54:41.132Z,4.22
2018-07-25T00:57:09.163Z,5.40
2018-07-25T00:59:36.987Z,6.85
2018-07-25T01:02:05.000Z,6.83
2018-07-25T01:04:33.034Z,4.53
2018-07-25T01:07:01.044Z,9.28
2018-07-25T01:09:29.063Z,7.25
2018-07-25T01:11:57.068Z,5.92
2018-07-25T01:14:25.108Z,5.10
2018-07-25T01:16:53.109Z,4.70
2018-07-25T01:19:20.935Z,6.83
2018-07-25T01:21:48.948Z,4.45
2018-07-25T01:24:16.982Z,6.85
2018-07-25T01:26:44.991Z,5.90
2018-07-25T01:29:13.855Z,4.10
2018-07-25T01:31:41.885Z,7.28
2018-07-25T01:34:09.904Z,5.45
2018-07-25T01:36:37.951Z,4.60
2018-07-25T01:39:07.536Z,6.87
2018-07-25T01:41:35.548Z,15.08
2018-07-25T01:44:03.572Z,4.20
2018-07-25T01:46:31.604Z,4.37
2018-07-25T01:48:59.631Z,4.65
2018-07-25T01:51:27.655Z,6.72
2018-07-25T01:53:55.680Z,4.03
2018-07-25T01:56:23.707Z,4.50
2018-07-25T01:58:51.736Z,7.97
2018-07-25T02:01:19.888Z,5.15
2018-07-25T02:03:47.871Z,6.70
2018-07-25T02:06:15.896Z,4.78
2018-07-25T02:08:43.924Z,4.40
2018-07-25T02:11:11.963Z,5.30
2018-07-25T02:13:39.992Z,4.67
2018-07-25T02:16:08.028Z,4.35
2018-07-25T02:18:36.076Z,4.60
2018-07-25T02:21:04.108Z,4.53
2018-07-25T02:23:32.140Z,4.50
2018-07-25T02:26:00.182Z,6.50
2018-07-25T02:28:28.200Z,5.55
2018-07-25T02:30:56.284Z,5.53
2018-07-25T02:33:29.696Z,4.62
2018-07-25T02:35:57.711Z,5.40
2018-07-25T02:38:25.729Z,5.08
2018-07-25T02:40:53.745Z,5.20
2018-07-25T02:43:21.755Z,5.10
2018-07-25T02:45:49.792Z,5.00
2018-07-25T02:48:17.849Z,4.83
2018-07-25T02:50:45.876Z,7.25
2018-07-25T02:53:13.997Z,10.20
2018-07-25T02:55:42.026Z,5.97
2018-07-25T02:58:10.068Z,6.78
2018-07-25T03:00:37.883Z,6.35
2018-07-25T03:03:06.024Z,10.28
2018-07-25T03:05:34.087Z,8.23
2018-07-25T03:08:02.124Z,7.92
2018-07-25T03:10:30.173Z,7.83
2018-07-25T03:12:58.212Z,8.43
2018-07-25T03:15:26.260Z,6.85
2018-07-25T03:17:54.294Z,6.60
2018-07-25T03:20:22.325Z,7.47
2018-07-25T03:22:50.347Z,8.68
2018-07-25T03:25:18.355Z,8.73
2018-07-25T03:27:46.388Z,12.10
2018-07-25T03:30:14.394Z,7.60
2018-07-25T03:32:42.451Z,6.28
2018-07-25T03:35:10.471Z,6.17
2018-07-25T03:37:38.506Z,5.70
2018-07-25T03:40:06.680Z,5.90
2018-07-25T03:42:34.862Z,10.08
2018-07-25T03:45:02.892Z,7.67
2018-07-25T03:47:30.931Z,5.08
2018-07-25T03:49:59.016Z,9.83
2018-07-25T03:52:27.038Z,7.62
2018-07-25T03:54:55.068Z,6.92
2018-07-25T03:57:22.904Z,6.90
2018-07-25T03:59:50.956Z,8.40
2018-07-25T04:02:19.003Z,8.05
2018-07-25T04:04:47.039Z,7.92
2018-07-25T04:07:15.072Z,6.65
2018-07-25T04:09:43.128Z,10.50
2018-07-25T04:12:11.320Z,6.00
2018-07-25T04:14:39.346Z,8.40
2018-07-25T04:17:07.376Z,6.92
2018-07-25T04:19:35.398Z,7.03
2018-07-25T04:22:03.444Z,5.58
2018-07-25T04:24:31.279Z,5.70
2018-07-25T04:26:59.324Z,5.50
2018-07-25T04:29:27.331Z,6.62
2018-07-25T04:31:55.396Z,7.70
2018-07-25T04:34:23.408Z,5.80
2018-07-25T04:36:51.416Z,7.40
2018-07-25T04:39:19.427Z,5.72
2018-07-25T04:41:47.463Z,8.35
2018-07-25T04:44:15.476Z,7.72
2018-07-25T04:46:43.541Z,7.00
2018-07-25T04:49:11.527Z,9.47
2018-07-25T04:51:39.536Z,7.58
2018-07-25T04:54:07.562Z,8.03
2018-07-25T04:56:35.592Z,5.53
2018-07-25T04:59:03.614Z,5.37
2018-07-25T05:01:31.649Z,8.88
2018-07-25T05:03:59.675Z,16.37
2018-07-25T05:06:27.711Z,5.65
2018-07-25T05:08:55.936Z,5.78
2018-07-25T05:11:23.985Z,8.15
2018-07-25T05:13:52.016Z,7.10
2018-07-25T05:16:20.052Z,27.73
2018-07-25T05:18:48.092Z,48.28
2018-07-25T05:21:16.132Z,60.12
2018-07-25T05:23:43.951Z,22.05
2018-07-25T05:26:11.964Z,9.23
2018-07-25T05:28:39.990Z,19.30
2018-07-25T05:31:08.031Z,16.25
2018-07-25T05:33:36.056Z,20.12
2018-07-25T05:36:04.094Z,47.70
2018-07-25T05:38:32.141Z,50.20
2018-07-25T05:41:00.172Z,25.88
2018-07-25T05:43:28.005Z,26.45
2018-07-25T05:45:56.016Z,18.25
2018-07-25T05:48:23.860Z,20.17
2018-07-25T05:50:51.884Z,19.92
2018-07-25T05:53:19.923Z,12.55
2018-07-25T05:55:48.000Z,57.53
2018-07-25T05:58:15.842Z,21.40
2018-07-25T06:00:43.864Z,82.40
2018-07-25T06:03:11.967Z,57.17
2018-07-25T06:05:39.958Z,25.52
2018-07-25T06:08:07.987Z,12.73
2018-07-25T06:10:36.016Z,38.50
2018-07-25T06:13:04.048Z,15.28
2018-07-25T06:15:32.162Z,11.78
2018-07-25T06:18:00.977Z,22.55
2018-07-25T06:20:29.078Z,15.65
2018-07-25T06:22:57.097Z,14.30
2018-07-25T06:25:25.160Z,13.20
2018-07-25T06:27:53.194Z,30.15
2018-07-25T06:30:21.212Z,17.98
2018-07-25T06:32:49.232Z,15.58
2018-07-25T06:35:17.251Z,9.17
2018-07-25T06:37:45.271Z,13.97
2018-07-25T06:40:13.304Z,12.28
2018-07-25T06:42:41.344Z,15.35
2018-07-25T06:45:09.372Z,12.43
2018-07-25T06:47:37.415Z,11.50
2018-07-25T06:50:06.437Z,17.32
2018-07-25T06:52:34.370Z,23.85
2018-07-25T06:55:02.384Z,20.88
2018-07-25T06:57:30.405Z,12.37
2018-07-25T06:59:58.424Z,8.03
2018-07-25T07:02:26.456Z,9.40
2018-07-25T07:04:54.492Z,10.38
2018-07-25T07:07:22.531Z,9.25
2018-07-25T07:09:50.579Z,11.28
2018-07-25T07:12:18.607Z,8.40
2018-07-25T07:14:46.648Z,10.72
2018-07-25T07:17:14.664Z,9.58
2018-07-25T07:19:42.687Z,9.13
2018-07-25T07:22:10.718Z,9.80
2018-07-25T07:24:38.761Z,8.90
2018-07-25T07:27:06.983Z,8.55
2018-07-25T07:29:35.024Z,7.17
2018-07-25T07:32:03.077Z,8.23
2018-07-25T07:34:31.106Z,6.50
2018-07-25T07:36:59.260Z,8.35
2018-07-25T07:39:27.295Z,9.10
2018-07-25T07:41:55.316Z,8.40
2018-07-25T07:44:23.487Z,6.90
2018-07-25T07:46:51.517Z,7.33
2018-07-25T07:49:19.540Z,8.83
2018-07-25T07:51:47.577Z,7.60
2018-07-25T07:54:15.605Z,11.40
2018-07-25T07:56:43.623Z,7.87
2018-07-25T07:59:11.665Z,8.87
2018-07-25T08:01:39.684Z,9.63
2018-07-25T08:04:07.944Z,8.18
2018-07-25T08:06:36.119Z,7.72
2018-07-25T08:09:07.384Z,6.20
2018-07-25T08:11:35.424Z,9.33
2018-07-25T08:14:03.483Z,14.10
2018-07-25T08:16:31.496Z,8.60
2018-07-25T08:18:59.340Z,13.80
2018-07-25T08:21:27.355Z,12.13
2018-07-25T08:23:55.419Z,7.15
2018-07-25T08:26:23.445Z,18.98
2018-07-25T08:28:51.480Z,13.22
2018-07-25T08:31:19.492Z,8.13
2018-07-25T08:33:47.630Z,8.63
2018-07-25T08:36:15.740Z,19.30
2018-07-25T08:38:44.518Z,17.95
2018-07-25T08:41:12.723Z,9.17
2018-07-25T08:43:41.916Z,22.40
2018-07-25T08:46:10.976Z,22.15
2018-07-25T08:48:39.460Z,19.42
2018-07-25T08:51:07.533Z,62.53
2018-07-25T08:53:35.908Z,88.70
2018-07-25T08:56:03.945Z,27.45
2018-07-25T08:58:32.003Z,27.13
2018-07-25T09:01:00.732Z,45.48
2018-07-25T09:03:28.755Z,51.90
2018-07-25T09:05:56.805Z,115.47
2018-07-25T09:08:24.819Z,67.20
2018-07-25T09:10:52.872Z,36.75
2018-07-25T09:13:21.084Z,15.70
2018-07-25T09:15:49.099Z,59.37
2018-07-25T09:18:16.947Z,22.40
2018-07-25T09:20:44.863Z,20.23
2018-07-25T09:23:12.835Z,23.47
2018-07-25T09:25:40.950Z,7.35
2018-07-25T09:28:08.860Z,7.70
2018-07-25T09:30:36.886Z,13.53
2018-07-25T09:33:04.944Z,12.47
2018-07-25T09:35:32.984Z,25.40
2018-07-25T09:38:01.008Z,16.48
2018-07-25T09:40:29.031Z,28.43
2018-07-25T09:42:57.059Z,26.55
2018-07-25T09:45:25.104Z,13.58
2018-07-25T09:47:53.119Z,11.88
2018-07-25T09:50:21.159Z,29.70
2018-07-25T09:52:49.226Z,5.83
2018-07-25T09:55:17.237Z,7.80
2018-07-25T09:57:45.248Z,18.73
2018-07-25T10:00:17.533Z,18.23
2018-07-25T10:02:45.560Z,7.47
2018-07-25T10:05:13.649Z,5.60
2018-07-25T10:07:41.761Z,5.45
2018-07-25T10:10:09.746Z,5.78
2018-07-25T10:12:37.764Z,9.10
2018-07-25T10:15:05.954Z,10.37
2018-07-25T10:17:33.884Z,11.75
2018-07-25T10:20:01.935Z,12.10
2018-07-25T10:22:29.936Z,8.20
2018-07-25T10:24:57.967Z,7.93
2018-07-25T10:27:26.146Z,6.45
2018-07-25T10:29:54.123Z,10.53
2018-07-25T10:32:22.124Z,14.30
2018-07-25T10:34:50.153Z,8.77
2018-07-25T10:37:18.268Z,11.60
2018-07-25T10:39:46.296Z,23.25
2018-07-25T10:42:14.421Z,7.97
2018-07-25T10:44:42.440Z,7.25
2018-07-25T10:47:10.497Z,7.60
2018-07-25T10:49:38.526Z,7.25
2018-07-25T10:52:06.563Z,6.47
2018-07-25T10:54:34.584Z,5.72
2018-07-25T10:57:02.616Z,8.40
2018-07-25T10:59:30.643Z,8.80
2018-07-25T11:01:58.711Z,9.88
2018-07-25T11:04:26.684Z,7.25
2018-07-25T11:06:54.715Z,6.23
2018-07-25T11:09:22.790Z,11.70
2018-07-25T11:11:50.841Z,6.20
2018-07-25T11:14:18.895Z,6.10
2018-07-25T11:16:46.936Z,6.15
2018-07-25T11:19:14.977Z,5.60
2018-07-25T11:21:43.005Z,5.80
2018-07-25T11:24:11.040Z,20.83
2018-07-25T11:26:39.076Z,15.48
2018-07-25T11:29:07.147Z,7.12
2018-07-25T11:31:35.191Z,32.70
2018-07-25T11:34:03.482Z,23.90
2018-07-25T11:36:31.513Z,14.63
2018-07-25T11:38:59.556Z,5.78
2018-07-25T11:41:27.631Z,5.60
2018-07-25T11:43:55.449Z,9.30
2018-07-25T11:46:23.493Z,5.80
2018-07-25T11:48:51.519Z,8.40
2018-07-25T11:51:19.675Z,13.73
2018-07-25T11:53:47.684Z,13.75
2018-07-25T11:56:15.752Z,14.18
2018-07-25T11:58:43.788Z,23.83
2018-07-25T12:01:11.866Z,5.90
2018-07-25T12:03:39.842Z,7.28
2018-07-25T12:06:07.877Z,9.43
2018-07-25T12:08:35.892Z,7.53
2018-07-25T12:11:03.956Z,9.88
2018-07-25T12:13:31.972Z,6.15
2018-07-25T12:16:00.013Z,16.57
2018-07-25T12:18:28.048Z,9.73
2018-07-25T12:20:56.078Z,37.50
2018-07-25T12:23:24.116Z,35.98
2018-07-25T12:25:52.164Z,16.87
2018-07-25T12:28:20.191Z,15.40
2018-07-25T12:30:48.228Z,10.58
2018-07-25T12:33:16.108Z,11.65
2018-07-25T12:35:44.132Z,7.28
2018-07-25T12:38:12.177Z,7.78
2018-07-25T12:40:40.203Z,9.87
2018-07-25T12:43:19.589Z,36.53
2018-07-25T12:45:47.631Z,7.25
2018-07-25T12:48:15.665Z,8.88
2018-07-25T12:50:43.691Z,18.60
2018-07-25T12:53:11.737Z,24.25
2018-07-25T12:55:39.787Z,19.32
2018-07-25T12:58:07.812Z,19.57
2018-07-25T13:00:35.840Z,10.13
2018-07-25T13:03:03.960Z,6.17
2018-07-25T13:05:32.003Z,8.13
2018-07-25T13:08:00.029Z,6.50
2018-07-25T13:10:28.204Z,8.13
2018-07-25T13:12:56.351Z,27.00
2018-07-25T13:15:24.388Z,5.90
2018-07-25T13:17:52.434Z,8.90
2018-07-25T13:20:20.288Z,6.03
2018-07-25T13:22:48.384Z,6.00
2018-07-25T13:25:16.593Z,5.60
2018-07-25T13:27:44.652Z,6.28
2018-07-25T13:30:12.695Z,6.97
2018-07-25T13:32:40.712Z,5.90
2018-07-25T13:35:08.764Z,6.00
2018-07-25T13:37:36.808Z,5.87
2018-07-25T13:40:05.156Z,6.37
2018-07-25T13:42:33.233Z,6.80
2018-07-25T13:45:01.075Z,6.13
2018-07-25T13:47:29.249Z,5.40
2018-07-25T13:49:57.268Z,5.85
2018-07-25T13:52:25.312Z,5.50
2018-07-25T13:54:53.341Z,5.40
2018-07-25T13:57:21.372Z,5.30
2018-07-25T13:59:49.405Z,5.80
2018-07-25T14:02:17.428Z,6.60
2018-07-25T14:04:45.453Z,6.62
2018-07-25T14:07:13.493Z,7.97
2018-07-25T14:09:41.521Z,5.60
2018-07-25T14:12:09.733Z,5.90
2018-07-25T14:14:37.683Z,5.75
2018-07-25T14:17:05.850Z,5.47
2018-07-25T14:19:33.908Z,7.70
2018-07-25T14:22:01.924Z,6.50
2018-07-25T14:24:30.000Z,5.67
2018-07-25T14:26:57.984Z,6.40
2018-07-25T14:29:26.115Z,6.97
2018-07-25T14:31:54.048Z,6.80
2018-07-25T14:34:22.023Z,6.90
2018-07-25T14:36:50.000Z,7.20
2018-07-25T14:39:18.016Z,7.60
2018-07-25T14:41:46.050Z,8.13
2018-07-25T14:44:14.076Z,7.00
2018-07-25T14:46:42.141Z,6.85
2018-07-25T14:49:10.204Z,8.90
2018-07-25T14:51:38.240Z,8.45
2018-07-25T14:54:06.268Z,7.20
2018-07-25T14:56:34.276Z,8.50
2018-07-25T14:59:02.406Z,9.50
2018-07-25T15:01:30.442Z,7.65
2018-07-25T15:03:58.469Z,7.60
2018-07-25T15:06:26.527Z,9.83
2018-07-25T15:08:54.365Z,8.78
2018-07-25T15:11:22.392Z,8.85
2018-07-25T15:13:50.420Z,7.80
2018-07-25T15:16:18.444Z,12.75
2018-07-25T15:18:46.468Z,10.13
2018-07-25T15:21:14.508Z,11.93
2018-07-25T15:23:54.766Z,10.48
2018-07-25T15:26:22.804Z,12.20
2018-07-25T15:28:50.837Z,9.85
2018-07-25T15:31:18.928Z,9.93
2018-07-25T15:33:46.973Z,9.85
2018-07-25T15:36:24.861Z,8.90
2018-07-25T15:38:52.908Z,9.25
2018-07-25T15:41:20.924Z,8.90
2018-07-25T15:43:48.968Z,7.93
2018-07-25T15:46:16.989Z,7.83
2018-07-25T15:48:45.044Z,7.97
2018-07-25T15:51:13.095Z,7.30
2018-07-25T15:53:41.142Z,8.93
2018-07-25T15:56:09.273Z,7.60
2018-07-25T15:58:37.299Z,8.28
2018-07-25T16:01:05.320Z,8.10
2018-07-25T16:03:33.340Z,8.15
2018-07-25T16:06:01.370Z,7.40
2018-07-25T16:08:29.414Z,7.53
2018-07-25T16:10:57.461Z,7.90
2018-07-25T16:13:25.464Z,8.15
2018-07-25T16:15:53.498Z,7.70
2018-07-25T16:18:21.328Z,7.80
2018-07-25T16:20:49.357Z,7.65
2018-07-25T16:23:17.387Z,8.00
2018-07-25T16:25:45.411Z,9.00
2018-07-25T16:28:13.461Z,6.92
2018-07-25T16:30:41.500Z,6.90
2018-07-25T16:33:09.532Z,6.78
2018-07-25T16:35:37.564Z,7.10
2018-07-25T16:38:05.860Z,6.58
2018-07-25T16:40:33.935Z,6.62
2018-07-25T16:43:01.940Z,6.50
2018-07-25T16:45:30.116Z,6.70
2018-07-25T16:47:58.115Z,6.03
2018-07-25T16:50:25.935Z,6.78
2018-07-25T16:52:54.311Z,6.12
2018-07-25T16:55:22.389Z,6.20
2018-07-25T16:57:50.556Z,6.10
2018-07-25T17:00:18.561Z,7.28
2018-07-25T17:02:46.579Z,6.70
2018-07-25T17:05:14.601Z,6.40
2018-07-25T17:07:42.652Z,5.90
2018-07-25T17:10:10.697Z,5.75
2018-07-25T17:12:38.746Z,6.17
2018-07-25T17:15:07.000Z,5.90
2018-07-25T17:17:35.068Z,6.10
2018-07-25T17:20:03.101Z,6.03
2018-07-25T17:22:31.145Z,6.20
2018-07-25T17:24:59.164Z,5.97
2018-07-25T17:27:27.028Z,6.80
2018-07-25T17:29:55.056Z,6.60
2018-07-25T17:32:23.105Z,7.85
2018-07-25T17:34:51.135Z,6.00
2018-07-25T17:37:19.176Z,5.70
2018-07-25T17:39:47.192Z,6.50
2018-07-25T17:42:15.328Z,6.07
2018-07-25T17:44:43.360Z,5.90
2018-07-25T17:47:11.384Z,9.60
2018-07-25T17:49:39.420Z,5.70
2018-07-25T17:52:07.452Z,5.87
2018-07-25T17:54:35.484Z,5.47
2018-07-25T17:57:03.532Z,10.43
2018-07-25T17:59:31.557Z,9.53
2018-07-25T18:01:59.595Z,5.80
2018-07-25T18:04:27.611Z,5.30
2018-07-25T18:06:55.744Z,5.50
2018-07-25T18:09:23.765Z,7.00
2018-07-25T18:11:51.867Z,7.33
2018-07-25T18:14:20.148Z,5.80
2018-07-25T18:16:48.473Z,6.40
2018-07-25T18:19:16.695Z,5.95
2018-07-25T18:21:44.749Z,6.90
2018-07-25T18:24:12.931Z,8.60
2018-07-25T18:26:41.218Z,6.55
2018-07-25T18:29:09.289Z,9.18
2018-07-25T18:31:37.280Z,7.40
2018-07-25T18:34:05.312Z,6.60
2018-07-25T18:36:33.323Z,5.47
2018-07-25T18:39:01.360Z,6.03
2018-07-25T18:41:29.452Z,5.95
2018-07-25T18:43:57.449Z,5.60
2018-07-25T18:46:25.468Z,6.10
2018-07-25T18:48:53.484Z,6.30
2018-07-25T18:51:21.512Z,6.72
2018-07-25T18:53:49.553Z,5.53
2018-07-25T18:56:17.647Z,7.22
2018-07-25T18:58:45.608Z,5.60
2018-07-25T19:01:13.645Z,6.80
2018-07-25T19:03:41.672Z,5.80
2018-07-25T19:06:09.704Z,6.17
2018-07-25T19:08:37.752Z,6.00
2018-07-25T19:11:05.867Z,5.80
2018-07-25T19:13:34.969Z,10.25
2018-07-25T19:16:03.948Z,5.62
2018-07-25T19:18:32.119Z,5.33
2018-07-25T19:21:00.301Z,6.17
2018-07-25T19:23:28.470Z,9.47
2018-07-25T19:25:56.499Z,6.00
2018-07-25T19:28:24.821Z,6.58
2018-07-25T19:30:53.631Z,6.85
2018-07-25T19:33:21.709Z,6.03
2018-07-25T19:35:49.782Z,7.12
2018-07-25T19:38:17.621Z,7.08
2018-07-25T19:40:45.636Z,6.42
2018-07-25T19:43:13.663Z,6.33
2018-07-25T19:45:41.732Z,6.07
2018-07-25T19:48:09.756Z,6.67
2018-07-25T19:50:37.773Z,8.75
2018-07-25T19:53:05.832Z,6.87
2018-07-25T19:55:33.883Z,7.10
2018-07-25T19:58:01.896Z,9.80
2018-07-25T20:00:29.976Z,7.87
2018-07-25T20:02:57.951Z,9.40
2018-07-25T20:05:25.787Z,7.80
2018-07-25T20:07:53.809Z,7.20
2018-07-25T20:10:21.828Z,8.35
2018-07-25T20:12:49.965Z,6.85
2018-07-25T20:15:23.344Z,8.63
2018-07-25T20:17:51.354Z,7.85
2018-07-25T20:20:19.378Z,7.25
2018-07-25T20:22:47.419Z,8.00
2018-07-25T20:25:15.453Z,7.80
2018-07-25T20:27:43.504Z,8.10
2018-07-25T20:30:11.564Z,7.55
2018-07-25T20:32:39.617Z,7.12
2018-07-25T20:35:07.662Z,7.33
2018-07-25T20:37:36.168Z,8.38
2018-07-25T20:40:04.684Z,9.48
2018-07-25T20:42:32.727Z,7.30
2018-07-25T20:45:00.575Z,7.80
2018-07-25T20:47:28.725Z,7.50
2018-07-25T20:49:56.764Z,7.70
2018-07-25T20:52:24.804Z,8.20
2018-07-25T20:54:52.640Z,8.70
2018-07-25T20:57:20.697Z,8.73
2018-07-25T20:59:48.710Z,9.20
2018-07-25T21:02:16.542Z,9.20
2018-07-25T21:04:44.634Z,13.23
2018-07-25T21:07:12.678Z,11.38
2018-07-25T21:09:40.699Z,12.23
2018-07-25T21:12:08.902Z,12.13
2018-07-25T21:14:36.932Z,9.93
2018-07-25T21:17:04.780Z,10.15
2018-07-25T21:19:32.834Z,12.33
2018-07-25T21:22:00.899Z,14.68
2018-07-25T21:24:28.916Z,12.07
2018-07-25T21:26:56.976Z,13.20
2018-07-25T21:29:24.987Z,13.05
2018-07-25T21:31:53.024Z,11.20
2018-07-25T21:34:21.068Z,11.97
2018-07-25T21:36:49.093Z,12.40
2018-07-25T21:39:17.128Z,11.43
2018-07-25T21:41:44.984Z,12.73
2018-07-25T21:44:13.035Z,10.63
2018-07-25T21:46:41.080Z,11.22
2018-07-25T21:49:09.119Z,10.15
2018-07-25T21:51:37.171Z,12.10
2018-07-25T21:54:05.032Z,13.75
2018-07-25T21:56:33.061Z,13.50
2018-07-25T21:59:01.083Z,15.18
2018-07-25T22:01:28.916Z,12.40
2018-07-25T22:03:56.958Z,12.33
2018-07-25T22:06:24.989Z,10.70
2018-07-25T22:08:52.842Z,10.57
2018-07-25T22:11:20.928Z,13.20
2018-07-25T22:13:56.236Z,13.95
2018-07-25T22:16:25.316Z,15.10
2018-07-25T22:18:53.445Z,12.30
2018-07-25T22:21:21.484Z,12.33
2018-07-25T22:23:49.516Z,11.95
2018-07-25T22:26:17.545Z,12.63
2018-07-25T22:28:45.599Z,12.33
2018-07-25T22:31:13.443Z,12.00
2018-07-25T22:33:41.489Z,11.78
2018-07-25T22:36:10.092Z,11.10
2018-07-25T22:38:38.120Z,11.12
2018-07-25T22:41:06.449Z,10.70
2018-07-25T22:43:34.692Z,10.20
2018-07-25T22:46:02.733Z,9.98
2018-07-25T22:48:30.779Z,10.70
2018-07-25T22:50:58.824Z,10.32
2018-07-25T22:53:26.928Z,10.05
2018-07-25T22:55:54.975Z,11.08
2018-07-25T22:58:23.008Z,10.80
2018-07-25T23:00:51.095Z,9.85
2018-07-25T23:03:19.149Z,10.38
2018-07-25T23:05:47.188Z,9.88
2018-07-25T23:08:15.249Z,10.50
2018-07-25T23:10:43.071Z,10.00
2018-07-25T23:13:11.216Z,10.30
2018-07-25T23:15:39.240Z,10.70
2018-07-25T23:18:07.281Z,10.40
2018-07-25T23:20:35.309Z,11.00
2018-07-25T23:23:03.332Z,10.70
2018-07-25T23:25:31.372Z,10.53
2018-07-25T23:27:59.971Z,10.18
2018-07-25T23:30:28.985Z,10.45
2018-07-25T23:32:57.039Z,11.25
2018-07-25T23:35:25.063Z,10.40
2018-07-25T23:37:53.090Z,9.73
2018-07-25T23:40:21.273Z,9.68
2018-07-25T23:42:49.862Z,10.45
2018-07-25T23:45:18.124Z,10.70
2018-07-25T23:47:46.184Z,11.08
2018-07-25T23:50:14.230Z,10.68
2018-07-25T23:52:42.284Z,11.30
2018-07-25T23:55:10.516Z,10.95
2018-07-25T23:57:38.667Z,10.48
